createdAt,value
2022-09-16T00:01:53.644Z,11.80
2022-09-16T00:04:22.231Z,11.80
2022-09-16T00:06:50.767Z,11.80
2022-09-16T00:09:20.784Z,11.70
2022-09-16T00:11:49.332Z,11.70
2022-09-16T00:14:17.958Z,11.70
2022-09-16T00:16:46.757Z,11.60
2022-09-16T00:19:15.465Z,11.60
2022-09-16T00:21:44.101Z,11.70
2022-09-16T00:24:14.152Z,11.60
2022-09-16T00:26:44.734Z,11.60
2022-09-16T00:29:14.194Z,11.50
2022-09-16T00:31:42.812Z,11.50
2022-09-16T00:34:11.874Z,11.50
2022-09-16T00:36:40.431Z,11.40
2022-09-16T00:39:09.042Z,11.40
2022-09-16T00:41:37.870Z,11.40
2022-09-16T00:44:28.880Z,11.30
2022-09-16T00:46:57.568Z,11.30
2022-09-16T00:49:30.471Z,11.20
2022-09-16T00:52:03.579Z,11.20
2022-09-16T00:54:33.571Z,11.10
2022-09-16T00:57:04.962Z,11.20
2022-09-16T00:59:38.462Z,11.10
2022-09-16T01:02:10.772Z,11.20
2022-09-16T01:04:47.055Z,11.10
2022-09-16T01:07:16.648Z,11.10
2022-09-16T01:09:45.398Z,11.10
2022-09-16T01:12:13.936Z,11.00
2022-09-16T01:14:56.789Z,11.00
2022-09-16T01:17:52.561Z,11.00
2022-09-16T01:20:51.473Z,11.00
2022-09-16T01:24:04.121Z,11.10
2022-09-16T01:27:05.740Z,11.00
2022-09-16T01:29:52.660Z,11.00
2022-09-16T01:32:29.524Z,10.90
2022-09-16T01:35:05.849Z,10.90
2022-09-16T01:37:45.283Z,10.90
2022-09-16T01:40:25.375Z,10.90
2022-09-16T01:43:04.236Z,10.80
2022-09-16T01:45:40.929Z,10.80
2022-09-16T01:48:19.722Z,10.90
2022-09-16T01:50:51.321Z,10.90
2022-09-16T01:53:26.521Z,10.80
2022-09-16T01:56:00.454Z,10.80
2022-09-16T01:58:36.495Z,10.80
2022-09-16T02:01:10.969Z,10.80
2022-09-16T02:03:50.922Z,10.80
2022-09-16T02:06:23.006Z,10.70
2022-09-16T02:08:57.183Z,10.70
2022-09-16T02:11:26.723Z,10.70
2022-09-16T02:14:01.889Z,10.70
2022-09-16T02:16:36.721Z,10.70
2022-09-16T02:19:12.043Z,10.70
2022-09-16T02:21:45.817Z,10.70
2022-09-16T02:24:19.945Z,10.70
2022-09-16T02:26:53.431Z,10.70
2022-09-16T02:29:26.908Z,10.70
2022-09-16T02:32:01.536Z,10.70
2022-09-16T02:34:35.064Z,10.60
2022-09-16T02:37:09.967Z,10.70
2022-09-16T02:39:44.618Z,10.60
2022-09-16T02:42:13.365Z,10.60
2022-09-16T02:44:42.713Z,10.50
2022-09-16T02:47:17.416Z,10.60
2022-09-16T02:49:55.785Z,10.50
2022-09-16T02:52:34.726Z,10.50
2022-09-16T02:55:08.288Z,10.50
2022-09-16T02:57:37.071Z,10.50
2022-09-16T03:00:07.137Z,10.60
2022-09-16T03:02:36.533Z,10.50
2022-09-16T03:05:07.318Z,10.60
2022-09-16T03:07:35.895Z,10.50
2022-09-16T03:10:05.237Z,10.50
2022-09-16T03:12:52.229Z,10.50
2022-09-16T03:15:38.223Z,10.50
2022-09-16T03:18:33.894Z,10.50
2022-09-16T03:21:15.249Z,10.50
2022-09-16T03:23:50.562Z,10.50
2022-09-16T03:26:28.252Z,10.50
2022-09-16T03:29:08.958Z,10.50
2022-09-16T03:31:43.687Z,10.50
2022-09-16T03:34:18.738Z,10.50
2022-09-16T03:36:54.007Z,10.50
2022-09-16T03:39:23.826Z,10.50
2022-09-16T03:41:53.438Z,10.50
2022-09-16T03:44:22.217Z,10.40
2022-09-16T03:46:50.829Z,10.50
2022-09-16T03:49:20.359Z,10.50
2022-09-16T03:51:50.510Z,10.50
2022-09-16T03:54:19.151Z,10.50
2022-09-16T03:56:47.643Z,10.60
2022-09-16T03:59:16.373Z,10.60
2022-09-16T04:01:45.559Z,10.70
2022-09-16T04:04:14.333Z,10.70
2022-09-16T04:06:42.839Z,10.70
2022-09-16T04:09:13.933Z,10.70
2022-09-16T04:11:42.926Z,10.70
2022-09-16T04:14:11.428Z,10.60
2022-09-16T04:16:44.834Z,10.50
2022-09-16T04:19:15.355Z,10.50
2022-09-16T04:21:44.217Z,10.50
2022-09-16T04:24:14.507Z,10.40
2022-09-16T04:26:43.451Z,10.40
2022-09-16T04:29:35.690Z,10.40
2022-09-16T04:32:04.460Z,10.40
2022-09-16T04:34:33.750Z,10.30
2022-09-16T04:37:02.287Z,10.30
2022-09-16T04:39:32.285Z,10.20
2022-09-16T04:42:01.171Z,10.20
2022-09-16T04:44:30.366Z,10.30
2022-09-16T04:46:58.881Z,10.30
2022-09-16T04:49:27.455Z,10.30
2022-09-16T04:51:55.982Z,10.20
2022-09-16T04:54:24.523Z,10.30
2022-09-16T04:57:19.495Z,10.30
2022-09-16T04:59:48.116Z,10.40
2022-09-16T05:02:16.847Z,10.40
2022-09-16T05:04:45.331Z,10.50
2022-09-16T05:07:13.944Z,10.50
2022-09-16T05:09:42.465Z,10.50
2022-09-16T05:12:10.986Z,10.50
2022-09-16T05:14:41.047Z,10.50
2022-09-16T05:17:09.630Z,10.50
2022-09-16T05:19:38.175Z,10.60
2022-09-16T05:22:07.570Z,10.60
2022-09-16T05:24:37.186Z,10.60
2022-09-16T05:27:06.020Z,10.70
2022-09-16T05:29:34.593Z,10.70
2022-09-16T05:32:04.658Z,10.80
2022-09-16T05:34:33.362Z,11.00
2022-09-16T05:37:01.893Z,11.00
2022-09-16T05:39:30.724Z,11.10
2022-09-16T05:42:01.215Z,11.20
2022-09-16T05:44:30.258Z,11.40
2022-09-16T05:46:58.896Z,11.50
2022-09-16T05:49:28.867Z,11.50
2022-09-16T05:51:57.508Z,11.60
2022-09-16T05:54:26.286Z,11.70
2022-09-16T05:56:54.843Z,11.70
2022-09-16T05:59:24.247Z,11.70
2022-09-16T06:01:52.927Z,11.60
2022-09-16T06:04:21.542Z,11.70
2022-09-16T06:06:51.481Z,11.70
2022-09-16T06:09:22.526Z,11.80
2022-09-16T06:11:56.575Z,11.80
2022-09-16T06:14:26.916Z,11.80
2022-09-16T06:16:55.415Z,11.80
2022-09-16T06:19:24.434Z,11.90
2022-09-16T06:21:54.518Z,12.00
2022-09-16T06:24:23.375Z,12.20
2022-09-16T06:26:51.945Z,12.30
2022-09-16T06:29:20.600Z,12.40
2022-09-16T06:31:49.230Z,12.50
2022-09-16T06:34:19.561Z,12.60
2022-09-16T06:36:51.623Z,12.70
2022-09-16T06:39:23.123Z,12.80
2022-09-16T06:41:52.045Z,12.90
2022-09-16T06:44:21.684Z,12.70
2022-09-16T06:46:50.212Z,12.80
2022-09-16T06:49:18.843Z,12.90
2022-09-16T06:51:47.426Z,13.00
2022-09-16T06:54:15.997Z,13.10
2022-09-16T06:56:45.969Z,13.10
2022-09-16T06:59:14.606Z,13.20
2022-09-16T07:01:43.320Z,13.40
2022-09-16T07:04:13.460Z,13.60
2022-09-16T07:09:30.646Z,13.40
2022-09-16T07:12:00.991Z,13.30
2022-09-16T07:14:32.633Z,13.30
2022-09-16T07:17:01.722Z,13.30
2022-09-16T07:19:30.868Z,13.40
2022-09-16T07:21:59.432Z,13.60
2022-09-16T07:24:28.001Z,13.30
2022-09-16T07:26:56.602Z,13.20
2022-09-16T07:29:27.545Z,13.30
2022-09-16T07:31:56.334Z,13.40
2022-09-16T07:34:24.962Z,13.50
2022-09-16T07:36:53.604Z,13.80
2022-09-16T07:39:22.500Z,14.00
2022-09-16T07:41:51.075Z,13.80
2022-09-16T07:44:21.501Z,13.70
2022-09-16T07:46:51.698Z,13.80
2022-09-16T07:49:20.781Z,13.90
2022-09-16T07:51:49.669Z,14.00
2022-09-16T07:54:20.269Z,14.20
2022-09-16T07:56:49.064Z,14.40
2022-09-16T07:59:20.592Z,14.80
2022-09-16T08:01:51.521Z,14.90
2022-09-16T08:04:21.514Z,15.00
2022-09-16T08:06:50.326Z,14.90
2022-09-16T08:12:08.153Z,15.10
2022-09-16T08:14:37.126Z,15.10
2022-09-16T08:17:07.678Z,15.10
2022-09-16T08:19:36.281Z,15.10
2022-09-16T08:22:05.158Z,15.10
2022-09-16T08:24:33.826Z,15.00
2022-09-16T08:27:02.493Z,14.70
2022-09-16T08:29:31.039Z,14.80
2022-09-16T08:31:59.771Z,14.80
2022-09-16T08:34:29.825Z,15.00
2022-09-16T08:36:58.449Z,15.30
2022-09-16T08:39:27.076Z,15.60
2022-09-16T08:42:20.879Z,15.70
2022-09-16T08:44:58.777Z,15.80
2022-09-16T08:47:42.260Z,16.20
2022-09-16T08:50:17.703Z,16.30
2022-09-16T08:52:48.081Z,16.20
2022-09-16T08:55:23.582Z,15.90
2022-09-16T08:57:58.118Z,15.60
2022-09-16T09:00:26.852Z,15.50
2022-09-16T09:02:58.139Z,15.70
2022-09-16T09:05:34.817Z,15.90
2022-09-16T09:08:34.370Z,16.00
2022-09-16T09:11:09.162Z,15.90
2022-09-16T09:13:49.367Z,15.80
2022-09-16T09:16:29.502Z,15.80
2022-09-16T09:19:10.019Z,15.80
2022-09-16T09:21:46.905Z,15.70
2022-09-16T09:24:31.657Z,15.80
2022-09-16T09:27:04.858Z,15.80
2022-09-16T09:29:57.802Z,16.00
2022-09-16T09:32:51.403Z,16.20
2022-09-16T09:35:34.847Z,16.40
2022-09-16T09:38:53.082Z,16.10
2022-09-16T09:41:27.655Z,15.50
2022-09-16T09:44:02.615Z,15.70
2022-09-16T09:46:35.214Z,16.00
2022-09-16T09:49:11.683Z,16.30
2022-09-16T09:51:45.575Z,16.50
2022-09-16T09:54:28.005Z,16.70
2022-09-16T09:57:01.186Z,16.80
2022-09-16T09:59:37.550Z,16.90
2022-09-16T10:02:15.685Z,16.70
2022-09-16T10:04:45.030Z,16.80
2022-09-16T10:07:16.033Z,17.10
2022-09-16T10:09:52.830Z,17.00
2022-09-16T10:12:32.951Z,17.20
2022-09-16T10:15:01.717Z,17.30
2022-09-16T10:17:32.691Z,17.10
2022-09-16T10:20:05.151Z,16.90
2022-09-16T10:22:35.085Z,16.60
2022-09-16T10:25:08.341Z,16.60
2022-09-16T10:27:39.370Z,16.60
2022-09-16T10:30:14.032Z,16.50
2022-09-16T10:32:50.199Z,16.40
2022-09-16T10:35:24.486Z,16.70
2022-09-16T10:37:57.785Z,17.00
2022-09-16T10:40:29.131Z,17.00
2022-09-16T10:43:03.182Z,17.00
2022-09-16T10:45:35.109Z,16.80
2022-09-16T10:48:07.969Z,16.60
2022-09-16T10:50:36.599Z,16.80
2022-09-16T10:53:23.889Z,16.90
2022-09-16T10:56:01.165Z,17.10
2022-09-16T10:58:29.829Z,17.20
2022-09-16T11:01:17.663Z,17.30
2022-09-16T11:04:12.005Z,17.50
2022-09-16T11:06:56.938Z,17.70
2022-09-16T11:09:34.430Z,17.30
2022-09-16T11:12:32.527Z,16.90
2022-09-16T11:15:11.735Z,16.80
2022-09-16T11:17:51.192Z,16.80
2022-09-16T11:20:43.909Z,16.90
2022-09-16T11:23:28.400Z,16.90
2022-09-16T11:26:01.927Z,17.00
2022-09-16T11:29:10.883Z,17.10
2022-09-16T11:31:51.158Z,17.40
2022-09-16T11:34:46.816Z,17.50
2022-09-16T11:37:24.010Z,17.30
2022-09-16T11:40:06.039Z,17.20
2022-09-16T11:42:40.311Z,17.40
2022-09-16T11:45:25.446Z,17.70
2022-09-16T11:48:14.651Z,18.10
2022-09-16T11:50:48.137Z,18.10
2022-09-16T11:53:36.252Z,18.10
2022-09-16T11:56:11.930Z,18.40
2022-09-16T11:58:46.583Z,18.70
2022-09-16T12:01:27.417Z,18.60
2022-09-16T12:04:00.862Z,18.70
2022-09-16T12:06:38.065Z,18.60
2022-09-16T12:09:12.050Z,18.50
2022-09-16T12:11:45.961Z,18.70
2022-09-16T12:14:18.612Z,18.90
2022-09-16T12:16:52.936Z,18.80
2022-09-16T12:19:25.238Z,18.60
2022-09-16T12:21:59.165Z,18.60
2022-09-16T12:24:37.805Z,18.90
2022-09-16T12:27:14.674Z,19.00
2022-09-16T12:29:51.240Z,18.70
2022-09-16T12:32:27.068Z,18.30
2022-09-16T12:35:00.526Z,17.90
2022-09-16T12:37:36.439Z,17.80
2022-09-16T12:40:06.429Z,18.10
2022-09-16T12:43:02.548Z,18.20
2022-09-16T12:45:56.013Z,18.50
2022-09-16T12:48:52.033Z,18.80
2022-09-16T12:51:34.514Z,19.10
2022-09-16T12:54:27.822Z,19.20
2022-09-16T12:57:13.868Z,19.10
2022-09-16T13:00:02.107Z,19.40
2022-09-16T13:02:37.930Z,19.20
2022-09-16T13:05:18.573Z,18.80
2022-09-16T13:07:53.445Z,18.70
2022-09-16T13:10:46.901Z,18.60
2022-09-16T13:13:23.034Z,18.40
2022-09-16T13:15:58.283Z,18.30
2022-09-16T13:18:39.696Z,18.30
2022-09-16T13:21:27.225Z,18.30
2022-09-16T13:24:07.545Z,18.30
2022-09-16T13:26:44.080Z,18.60
2022-09-16T13:29:44.048Z,18.30
2022-09-16T13:32:29.824Z,18.10
2022-09-16T13:35:06.747Z,18.40
2022-09-16T13:37:36.864Z,18.50
2022-09-16T13:40:19.971Z,18.60
2022-09-16T13:42:48.889Z,18.40
2022-09-16T13:45:35.771Z,18.10
2022-09-16T13:48:13.839Z,18.20
2022-09-16T13:50:46.472Z,18.30
2022-09-16T13:53:24.730Z,18.50
2022-09-16T13:56:00.930Z,18.50
2022-09-16T13:58:35.601Z,18.50
2022-09-16T14:01:10.746Z,18.40
2022-09-16T14:03:47.728Z,18.30
2022-09-16T14:06:37.993Z,18.30
2022-09-16T14:09:18.274Z,18.50
2022-09-16T14:11:54.898Z,18.60
2022-09-16T14:17:22.329Z,18.00
2022-09-16T14:19:53.864Z,17.70
2022-09-16T14:22:25.890Z,17.50
2022-09-16T14:25:06.572Z,17.50
2022-09-16T14:27:45.940Z,17.50
2022-09-16T14:30:18.011Z,17.50
2022-09-16T14:32:47.703Z,17.50
2022-09-16T14:35:20.650Z,17.50
2022-09-16T14:37:52.574Z,17.40
2022-09-16T14:40:25.938Z,17.50
2022-09-16T14:42:57.987Z,17.60
2022-09-16T14:45:26.625Z,17.60
2022-09-16T14:47:57.099Z,17.70
2022-09-16T14:50:28.575Z,17.70
2022-09-16T14:53:02.729Z,17.70
2022-09-16T14:55:36.393Z,17.90
2022-09-16T14:58:17.322Z,18.10
2022-09-16T15:00:50.282Z,18.40
2022-09-16T15:03:24.257Z,18.50
2022-09-16T15:05:55.971Z,18.50
2022-09-16T15:08:28.438Z,18.30
2022-09-16T15:11:00.698Z,18.10
2022-09-16T15:13:31.859Z,18.00
2022-09-16T15:16:04.157Z,17.90
2022-09-16T15:18:35.418Z,17.80
2022-09-16T15:21:09.090Z,17.70
2022-09-16T15:23:40.430Z,17.60
2022-09-16T15:26:19.955Z,17.50
2022-09-16T15:29:02.921Z,17.40
2022-09-16T15:31:37.188Z,17.50
2022-09-16T15:34:20.855Z,17.30
2022-09-16T15:36:51.063Z,17.20
2022-09-16T15:39:28.812Z,17.20
2022-09-16T15:42:15.620Z,17.20
2022-09-16T15:44:50.251Z,17.20
2022-09-16T15:47:26.710Z,17.10
2022-09-16T15:50:01.451Z,17.20
2022-09-16T15:52:34.908Z,17.30
2022-09-16T15:55:05.673Z,17.20
2022-09-16T15:57:39.933Z,17.10
2022-09-16T16:00:13.312Z,16.90
2022-09-16T16:02:47.089Z,16.70
2022-09-16T16:05:18.615Z,16.70
2022-09-16T16:07:49.403Z,16.60
2022-09-16T16:10:21.044Z,16.60
2022-09-16T16:12:53.167Z,16.60
2022-09-16T16:15:25.484Z,16.50
2022-09-16T16:17:56.288Z,16.40
2022-09-16T16:20:25.115Z,16.40
2022-09-16T16:22:55.533Z,16.30
2022-09-16T16:25:24.464Z,16.30
2022-09-16T16:27:54.720Z,16.30
2022-09-16T16:30:23.507Z,16.20
2022-09-16T16:32:52.221Z,16.40
2022-09-16T16:35:20.984Z,16.40
2022-09-16T16:37:50.046Z,16.40
2022-09-16T16:40:19.037Z,16.50
2022-09-16T16:42:47.863Z,16.50
2022-09-16T16:45:18.245Z,16.50
2022-09-16T16:47:47.051Z,16.50
2022-09-16T16:50:16.010Z,16.40
2022-09-16T16:52:44.855Z,16.40
2022-09-16T16:55:13.926Z,16.30
2022-09-16T16:57:44.834Z,16.20
2022-09-16T17:00:15.140Z,16.10
2022-09-16T17:02:46.391Z,16.00
2022-09-16T17:05:15.422Z,15.90
2022-09-16T17:07:44.306Z,15.80
2022-09-16T17:10:12.926Z,15.70
2022-09-16T17:12:42.227Z,15.70
2022-09-16T17:15:11.520Z,15.50
2022-09-16T17:17:40.633Z,15.40
2022-09-16T17:20:11.254Z,15.30
2022-09-16T17:22:40.821Z,15.20
2022-09-16T17:25:10.418Z,15.10
2022-09-16T17:27:39.361Z,15.00
2022-09-16T17:30:09.173Z,14.90
2022-09-16T17:32:39.161Z,14.80
2022-09-16T17:35:10.378Z,14.80
2022-09-16T17:37:42.720Z,14.70
2022-09-16T17:40:12.740Z,14.60
2022-09-16T17:42:41.896Z,14.60
2022-09-16T17:45:12.089Z,14.50
2022-09-16T17:47:40.757Z,14.40
2022-09-16T17:50:10.413Z,14.40
2022-09-16T17:52:40.567Z,14.30
2022-09-16T17:55:19.130Z,14.30
2022-09-16T17:57:47.921Z,14.20
2022-09-16T18:00:17.712Z,14.10
2022-09-16T18:02:46.341Z,14.10
2022-09-16T18:08:01.489Z,14.10
2022-09-16T18:10:30.082Z,14.10
2022-09-16T18:12:59.297Z,14.20
2022-09-16T18:15:28.014Z,14.20
2022-09-16T18:17:56.810Z,14.30
2022-09-16T18:20:25.927Z,14.40
2022-09-16T18:22:54.603Z,14.40
2022-09-16T18:25:24.719Z,14.40
2022-09-16T18:27:53.805Z,14.40
2022-09-16T18:30:36.026Z,14.40
2022-09-16T18:33:08.661Z,14.40
2022-09-16T18:35:38.592Z,14.40
2022-09-16T18:38:08.384Z,14.30
2022-09-16T18:40:39.653Z,14.20
2022-09-16T18:43:08.919Z,14.20
2022-09-16T18:45:37.946Z,14.20
2022-09-16T18:48:06.950Z,14.20
2022-09-16T18:50:35.706Z,14.20
2022-09-16T18:53:04.596Z,14.20
2022-09-16T18:55:33.493Z,14.10
2022-09-16T18:58:03.704Z,14.10
2022-09-16T19:00:32.499Z,14.10
2022-09-16T19:03:01.370Z,14.10
2022-09-16T19:05:30.191Z,14.20
2022-09-16T19:07:59.003Z,14.10
2022-09-16T19:10:28.027Z,14.10
2022-09-16T19:12:57.158Z,14.10
2022-09-16T19:15:27.583Z,14.00
2022-09-16T19:17:56.994Z,14.00
2022-09-16T19:20:26.051Z,14.00
2022-09-16T19:22:54.802Z,14.00
2022-09-16T19:25:23.836Z,13.90
2022-09-16T19:27:52.729Z,13.80
2022-09-16T19:30:25.273Z,13.80
2022-09-16T19:32:55.848Z,13.80
2022-09-16T19:35:28.738Z,13.80
2022-09-16T19:37:57.838Z,13.80
2022-09-16T19:40:26.897Z,13.70
2022-09-16T19:42:56.470Z,13.60
2022-09-16T19:45:27.888Z,13.40
2022-09-16T19:47:58.287Z,13.30
2022-09-16T19:50:27.403Z,13.10
2022-09-16T19:52:56.797Z,12.90
2022-09-16T19:55:25.547Z,12.80
2022-09-16T19:57:54.430Z,12.60
2022-09-16T20:00:36.559Z,12.40
2022-09-16T20:03:14.339Z,12.20
2022-09-16T20:05:43.255Z,12.10
2022-09-16T20:08:12.269Z,12.00
2022-09-16T20:10:41.260Z,12.00
2022-09-16T20:13:10.429Z,11.90
2022-09-16T20:15:39.464Z,11.90
2022-09-16T20:18:09.218Z,11.80
2022-09-16T20:20:39.835Z,11.80
2022-09-16T20:23:09.084Z,11.70
2022-09-16T20:25:38.857Z,11.70
2022-09-16T20:28:08.406Z,11.60
2022-09-16T20:30:37.561Z,11.60
2022-09-16T20:33:06.645Z,11.60
2022-09-16T20:35:36.005Z,11.50
2022-09-16T20:38:06.380Z,11.50
2022-09-16T20:40:37.221Z,11.50
2022-09-16T20:43:06.055Z,11.50
2022-09-16T20:45:37.844Z,11.40
2022-09-16T20:48:07.104Z,11.30
2022-09-16T20:50:38.978Z,11.30
2022-09-16T20:53:11.863Z,11.30
2022-09-16T20:55:40.905Z,11.30
2022-09-16T20:58:09.789Z,11.20
2022-09-16T21:00:38.846Z,11.30
2022-09-16T21:03:07.897Z,11.20
2022-09-16T21:05:36.898Z,11.20
2022-09-16T21:08:05.903Z,11.10
2022-09-16T21:10:40.011Z,11.00
2022-09-16T21:13:08.767Z,11.10
2022-09-16T21:15:37.963Z,11.10
2022-09-16T21:18:06.962Z,11.10
2022-09-16T21:20:35.597Z,11.20
2022-09-16T21:23:04.290Z,11.10
2022-09-16T21:25:33.825Z,11.10
2022-09-16T21:28:04.282Z,11.20
2022-09-16T21:30:32.957Z,11.10
2022-09-16T21:33:01.798Z,11.10
2022-09-16T21:35:30.486Z,11.00
2022-09-16T21:37:59.055Z,11.00
2022-09-16T21:40:27.856Z,11.00
2022-09-16T21:42:56.726Z,11.00
2022-09-16T21:45:27.076Z,11.00
2022-09-16T21:47:57.709Z,11.00
2022-09-16T21:50:26.419Z,11.00
2022-09-16T21:52:55.107Z,11.00
2022-09-16T21:55:23.888Z,11.00
2022-09-16T21:57:52.540Z,11.00
2022-09-16T22:00:21.402Z,11.00
2022-09-16T22:02:51.535Z,11.10
2022-09-16T22:05:20.131Z,11.10
2022-09-16T22:07:48.820Z,11.10
2022-09-16T22:10:17.784Z,11.10
2022-09-16T22:12:46.514Z,11.00
2022-09-16T22:15:16.740Z,11.10
2022-09-16T22:17:48.851Z,11.10
2022-09-16T22:20:23.620Z,11.10
2022-09-16T22:22:52.706Z,11.10
2022-09-16T22:25:21.293Z,11.20
2022-09-16T22:27:50.013Z,11.20
2022-09-16T22:30:18.812Z,11.10
2022-09-16T22:32:47.520Z,11.10
2022-09-16T22:35:16.223Z,11.10
2022-09-16T22:37:46.335Z,11.10
2022-09-16T22:40:15.139Z,11.10
2022-09-16T22:42:43.785Z,11.10
2022-09-16T22:45:12.982Z,11.00
2022-09-16T22:47:41.707Z,11.10
2022-09-16T22:50:10.612Z,11.10
2022-09-16T22:52:39.303Z,11.10
2022-09-16T22:55:10.532Z,11.10
2022-09-16T22:57:39.342Z,11.20
2022-09-16T23:00:09.205Z,11.10
2022-09-16T23:02:37.893Z,11.20
2022-09-16T23:05:07.571Z,11.20
2022-09-16T23:08:06.068Z,11.10
2022-09-16T23:10:40.671Z,11.10
2022-09-16T23:13:12.974Z,11.20
2022-09-16T23:15:41.905Z,11.10
2022-09-16T23:18:10.963Z,11.20
2022-09-16T23:20:39.517Z,11.20
2022-09-16T23:23:10.477Z,11.20
2022-09-16T23:25:40.661Z,11.30
2022-09-16T23:28:09.494Z,11.30
2022-09-16T23:30:38.324Z,11.20
2022-09-16T23:33:06.978Z,11.30
2022-09-16T23:35:35.697Z,11.30
2022-09-16T23:38:04.421Z,11.20
2022-09-16T23:40:33.197Z,11.30
2022-09-16T23:43:03.522Z,11.30
2022-09-16T23:45:32.201Z,11.30
2022-09-16T23:48:01.030Z,11.30
2022-09-16T23:50:29.819Z,11.30
2022-09-16T23:52:58.933Z,11.30
2022-09-16T23:55:27.803Z,11.30
2022-09-16T23:57:56.365Z,11.30
